sensor_id;sensor_type;location;lat;lon;timestamp;temperature;humidity
2873;DHT22;1444;49.166;7.312;2023-02-28T00:00:09;1.20;78.50
2873;DHT22;1444;49.166;7.312;2023-02-28T00:05:04;1.10;78.90
2873;DHT22;1444;49.166;7.312;2023-02-28T00:10:00;1.10;79.00
2873;DHT22;1444;49.166;7.312;2023-02-28T00:12:27;1.00;78.80
2873;DHT22;1444;49.166;7.312;2023-02-28T00:14:54;1.00;79.00
2873;DHT22;1444;49.166;7.312;2023-02-28T00:17:20;1.00;79.00
2873;DHT22;1444;49.166;7.312;2023-02-28T00:19:47;1.00;78.90
2873;DHT22;1444;49.166;7.312;2023-02-28T00:22:14;1.10;79.30
2873;DHT22;1444;49.166;7.312;2023-02-28T00:24:43;1.10;79.30
2873;DHT22;1444;49.166;7.312;2023-02-28T00:27:09;1.10;79.30
2873;DHT22;1444;49.166;7.312;2023-02-28T00:29:36;1.10;79.40
2873;DHT22;1444;49.166;7.312;2023-02-28T00:32:04;1.10;79.40
2873;DHT22;1444;49.166;7.312;2023-02-28T00:39:29;0.90;79.70
2873;DHT22;1444;49.166;7.312;2023-02-28T00:41:57;1.00;80.00
2873;DHT22;1444;49.166;7.312;2023-02-28T00:44:24;-1.90;76.90
2873;DHT22;1444;49.166;7.312;2023-02-28T00:49:19;0.90;79.90
2873;DHT22;1444;49.166;7.312;2023-02-28T00:51:46;0.90;79.70
2873;DHT22;1444;49.166;7.312;2023-02-28T00:54:13;0.90;79.70
2873;DHT22;1444;49.166;7.312;2023-02-28T00:56:39;-0.60;78.30
2873;DHT22;1444;49.166;7.312;2023-02-28T00:59:08;1.00;79.90
2873;DHT22;1444;49.166;7.312;2023-02-28T01:01:34;1.00;80.00
2873;DHT22;1444;49.166;7.312;2023-02-28T01:04:01;1.00;79.90
2873;DHT22;1444;49.166;7.312;2023-02-28T01:06:28;1.00;79.90
2873;DHT22;1444;49.166;7.312;2023-02-28T01:08:55;1.00;80.00
2873;DHT22;1444;49.166;7.312;2023-02-28T01:16:17;0.90;80.40
2873;DHT22;1444;49.166;7.312;2023-02-28T01:21:13;0.80;80.20
2873;DHT22;1444;49.166;7.312;2023-02-28T01:23:40;0.90;80.40
2873;DHT22;1444;49.166;7.312;2023-02-28T01:28:36;0.70;80.50
2873;DHT22;1444;49.166;7.312;2023-02-28T01:31:03;0.70;81.20
2873;DHT22;1444;49.166;7.312;2023-02-28T01:38:25;0.50;81.40
2873;DHT22;1444;49.166;7.312;2023-02-28T01:40:53;0.50;81.50
2873;DHT22;1444;49.166;7.312;2023-02-28T01:45:49;0.50;81.50
2873;DHT22;1444;49.166;7.312;2023-02-28T01:48:17;0.50;81.60
2873;DHT22;1444;49.166;7.312;2023-02-28T01:50:46;0.60;81.50
2873;DHT22;1444;49.166;7.312;2023-02-28T01:53:16;0.60;81.60
2873;DHT22;1444;49.166;7.312;2023-02-28T02:00:41;0.60;81.60
2873;DHT22;1444;49.166;7.312;2023-02-28T02:03:11;0.60;81.30
2873;DHT22;1444;49.166;7.312;2023-02-28T02:05:40;0.60;81.70
2873;DHT22;1444;49.166;7.312;2023-02-28T02:13:34;0.50;81.70
2873;DHT22;1444;49.166;7.312;2023-02-28T02:16:10;0.50;81.90
2873;DHT22;1444;49.166;7.312;2023-02-28T02:21:46;0.50;81.90
2873;DHT22;1444;49.166;7.312;2023-02-28T02:27:17;2.80;84.30
2873;DHT22;1444;49.166;7.312;2023-02-28T02:30:12;0.50;82.20
2873;DHT22;1444;49.166;7.312;2023-02-28T02:35:25;0.50;82.30
2873;DHT22;1444;49.166;7.312;2023-02-28T02:37:57;0.50;82.60
2873;DHT22;1444;49.166;7.312;2023-02-28T02:40:29;0.50;82.70
2873;DHT22;1444;49.166;7.312;2023-02-28T02:43:01;0.50;82.70
2873;DHT22;1444;49.166;7.312;2023-02-28T02:50:33;0.40;82.80
2873;DHT22;1444;49.166;7.312;2023-02-28T02:53:03;0.40;83.00
2873;DHT22;1444;49.166;7.312;2023-02-28T02:55:33;0.40;83.00
2873;DHT22;1444;49.166;7.312;2023-02-28T02:58:03;0.40;83.10
2873;DHT22;1444;49.166;7.312;2023-02-28T03:03:01;0.40;83.10
2873;DHT22;1444;49.166;7.312;2023-02-28T03:07:59;0.40;83.30
2873;DHT22;1444;49.166;7.312;2023-02-28T03:13:25;0.30;83.50
2873;DHT22;1444;49.166;7.312;2023-02-28T03:18:57;0.30;83.50
2873;DHT22;1444;49.166;7.312;2023-02-28T03:26:27;0.20;84.00
2873;DHT22;1444;49.166;7.312;2023-02-28T03:33:58;0.10;84.30
2873;DHT22;1444;49.166;7.312;2023-02-28T03:36:28;0.10;84.60
2873;DHT22;1444;49.166;7.312;2023-02-28T03:38:59;0.10;84.90
2873;DHT22;1444;49.166;7.312;2023-02-28T03:41:32;0.00;85.10
2873;DHT22;1444;49.166;7.312;2023-02-28T03:44:05;0.00;85.30
2873;DHT22;1444;49.166;7.312;2023-02-28T03:46:36;0.00;85.40
2873;DHT22;1444;49.166;7.312;2023-02-28T03:49:09;0.00;85.50
2873;DHT22;1444;49.166;7.312;2023-02-28T03:54:12;-0.10;85.70
2873;DHT22;1444;49.166;7.312;2023-02-28T03:59:14;0.00;86.10
2873;DHT22;1444;49.166;7.312;2023-02-28T04:01:43;0.00;86.00
2873;DHT22;1444;49.166;7.312;2023-02-28T04:06:39;0.00;86.30
2873;DHT22;1444;49.166;7.312;2023-02-28T04:09:10;0.00;86.50
2873;DHT22;1444;49.166;7.312;2023-02-28T04:11:38;-0.10;86.40
2873;DHT22;1444;49.166;7.312;2023-02-28T04:16:34;-0.10;86.60
2873;DHT22;1444;49.166;7.312;2023-02-28T04:19:01;-0.10;86.80
2873;DHT22;1444;49.166;7.312;2023-02-28T04:21:28;-0.10;87.00
2873;DHT22;1444;49.166;7.312;2023-02-28T04:28:55;-0.20;87.10
2873;DHT22;1444;49.166;7.312;2023-02-28T04:31:21;-0.20;87.20
2873;DHT22;1444;49.166;7.312;2023-02-28T04:33:48;-0.20;87.30
2873;DHT22;1444;49.166;7.312;2023-02-28T04:36:15;-0.20;87.40
2873;DHT22;1444;49.166;7.312;2023-02-28T04:41:10;-0.20;87.60
2873;DHT22;1444;49.166;7.312;2023-02-28T04:43:39;-0.20;87.60
2873;DHT22;1444;49.166;7.312;2023-02-28T04:46:33;-0.30;87.70
2873;DHT22;1444;49.166;7.312;2023-02-28T04:49:01;-0.30;87.70
2873;DHT22;1444;49.166;7.312;2023-02-28T04:51:28;-0.30;87.70
2873;DHT22;1444;49.166;7.312;2023-02-28T04:56:22;-0.20;87.90
2873;DHT22;1444;49.166;7.312;2023-02-28T04:58:50;-0.30;87.70
2873;DHT22;1444;49.166;7.312;2023-02-28T05:01:21;-0.20;87.80
2873;DHT22;1444;49.166;7.312;2023-02-28T05:03:53;-0.30;87.80
2873;DHT22;1444;49.166;7.312;2023-02-28T05:06:21;-0.20;87.90
2873;DHT22;1444;49.166;7.312;2023-02-28T05:08:49;-0.30;87.80
2873;DHT22;1444;49.166;7.312;2023-02-28T05:16:13;-0.30;88.20
2873;DHT22;1444;49.166;7.312;2023-02-28T05:18:39;-0.30;88.00
2873;DHT22;1444;49.166;7.312;2023-02-28T05:23:33;-0.30;88.00
2873;DHT22;1444;49.166;7.312;2023-02-28T05:28:27;-0.40;88.50
2873;DHT22;1444;49.166;7.312;2023-02-28T05:30:54;-0.40;88.40
2873;DHT22;1444;49.166;7.312;2023-02-28T05:38:16;-0.50;88.70
2873;DHT22;1444;49.166;7.312;2023-02-28T05:40:43;-0.40;88.80
2873;DHT22;1444;49.166;7.312;2023-02-28T05:43:10;-0.40;88.70
2873;DHT22;1444;49.166;7.312;2023-02-28T05:50:33;-0.50;89.10
2873;DHT22;1444;49.166;7.312;2023-02-28T05:53:00;-0.50;89.20
2873;DHT22;1444;49.166;7.312;2023-02-28T05:57:54;-0.40;89.20
2873;DHT22;1444;49.166;7.312;2023-02-28T06:00:22;-0.40;89.20
2873;DHT22;1444;49.166;7.312;2023-02-28T06:02:48;-0.40;89.30
2873;DHT22;1444;49.166;7.312;2023-02-28T06:07:45;-0.40;89.30
2873;DHT22;1444;49.166;7.312;2023-02-28T06:10:12;-0.40;89.50
2873;DHT22;1444;49.166;7.312;2023-02-28T06:15:11;-0.40;89.50
2873;DHT22;1444;49.166;7.312;2023-02-28T06:22:34;-0.20;89.80
2873;DHT22;1444;49.166;7.312;2023-02-28T06:27:30;-0.20;89.70
2873;DHT22;1444;49.166;7.312;2023-02-28T06:29:57;-0.20;89.60
2873;DHT22;1444;49.166;7.312;2023-02-28T06:32:24;-0.20;90.00
2873;DHT22;1444;49.166;7.312;2023-02-28T06:39:45;-0.10;90.00
2873;DHT22;1444;49.166;7.312;2023-02-28T06:42:13;-0.10;90.00
2873;DHT22;1444;49.166;7.312;2023-02-28T06:47:08;0.10;90.00
2873;DHT22;1444;49.166;7.312;2023-02-28T06:49:35;0.10;90.00
2873;DHT22;1444;49.166;7.312;2023-02-28T06:52:02;0.20;89.90
2873;DHT22;1444;49.166;7.312;2023-02-28T06:54:29;0.20;89.90
2873;DHT22;1444;49.166;7.312;2023-02-28T06:59:26;0.30;90.00
2873;DHT22;1444;49.166;7.312;2023-02-28T07:01:52;0.30;89.90
2873;DHT22;1444;49.166;7.312;2023-02-28T07:06:47;0.30;89.60
2873;DHT22;1444;49.166;7.312;2023-02-28T07:09:14;0.30;89.50
2873;DHT22;1444;49.166;7.312;2023-02-28T07:11:41;0.40;89.50
2873;DHT22;1444;49.166;7.312;2023-02-28T07:16:37;0.40;89.30
2873;DHT22;1444;49.166;7.312;2023-02-28T07:19:03;0.50;89.50
2873;DHT22;1444;49.166;7.312;2023-02-28T07:21:30;0.50;89.30
2873;DHT22;1444;49.166;7.312;2023-02-28T07:23:57;0.90;89.70
2873;DHT22;1444;49.166;7.312;2023-02-28T07:31:18;2.00;87.20
2873;DHT22;1444;49.166;7.312;2023-02-28T07:33:46;1.90;86.00
2873;DHT22;1444;49.166;7.312;2023-02-28T07:38:43;1.80;86.10
2873;DHT22;1444;49.166;7.312;2023-02-28T07:46:08;0.90;86.20
2873;DHT22;1444;49.166;7.312;2023-02-28T07:48:35;1.20;86.90
2873;DHT22;1444;49.166;7.312;2023-02-28T07:51:03;1.10;87.50
2873;DHT22;1444;49.166;7.312;2023-02-28T07:53:30;1.10;87.70
2873;DHT22;1444;49.166;7.312;2023-02-28T07:55:58;1.10;88.00
2873;DHT22;1444;49.166;7.312;2023-02-28T07:58:26;1.20;88.30
2873;DHT22;1444;49.166;7.312;2023-02-28T08:00:53;1.20;88.40
2873;DHT22;1444;49.166;7.312;2023-02-28T08:03:21;-1.70;85.20
2873;DHT22;1444;49.166;7.312;2023-02-28T08:08:17;1.30;88.80
2873;DHT22;1444;49.166;7.312;2023-02-28T08:10:43;1.30;88.60
2873;DHT22;1444;49.166;7.312;2023-02-28T08:13:10;1.30;88.50
2873;DHT22;1444;49.166;7.312;2023-02-28T08:20:31;1.50;87.70
2873;DHT22;1444;49.166;7.312;2023-02-28T08:22:57;1.60;88.30
2873;DHT22;1444;49.166;7.312;2023-02-28T08:25:25;1.80;88.40
2873;DHT22;1444;49.166;7.312;2023-02-28T08:30:19;2.20;87.00
2873;DHT22;1444;49.166;7.312;2023-02-28T08:32:46;2.40;87.50
2873;DHT22;1444;49.166;7.312;2023-02-28T08:35:13;2.70;87.10
2873;DHT22;1444;49.166;7.312;2023-02-28T08:37:39;2.80;86.40
2873;DHT22;1444;49.166;7.312;2023-02-28T08:40:07;3.10;86.40
2873;DHT22;1444;49.166;7.312;2023-02-28T08:42:36;3.10;84.70
2873;DHT22;1444;49.166;7.312;2023-02-28T08:45:03;3.10;84.30
2873;DHT22;1444;49.166;7.312;2023-02-28T08:47:30;3.10;85.10
2873;DHT22;1444;49.166;7.312;2023-02-28T08:52:24;3.00;85.00
2873;DHT22;1444;49.166;7.312;2023-02-28T08:59:46;2.90;84.90
2873;DHT22;1444;49.166;7.312;2023-02-28T09:02:13;2.90;84.80
2873;DHT22;1444;49.166;7.312;2023-02-28T09:07:07;3.20;84.60
2873;DHT22;1444;49.166;7.312;2023-02-28T09:09:34;3.30;84.30
2873;DHT22;1444;49.166;7.312;2023-02-28T09:12:01;3.40;83.70
2873;DHT22;1444;49.166;7.312;2023-02-28T09:14:27;3.50;83.50
2873;DHT22;1444;49.166;7.312;2023-02-28T09:21:50;3.50;83.10
2873;DHT22;1444;49.166;7.312;2023-02-28T09:24:17;3.60;84.00
2873;DHT22;1444;49.166;7.312;2023-02-28T09:29:12;3.70;82.20
2873;DHT22;1444;49.166;7.312;2023-02-28T09:31:39;3.70;82.20
2873;DHT22;1444;49.166;7.312;2023-02-28T09:34:07;7.00;85.30
2873;DHT22;1444;49.166;7.312;2023-02-28T09:36:35;3.90;83.10
2873;DHT22;1444;49.166;7.312;2023-02-28T09:39:03;3.90;81.80
2873;DHT22;1444;49.166;7.312;2023-02-28T09:41:37;3.90;81.50
2873;DHT22;1444;49.166;7.312;2023-02-28T09:44:06;3.90;81.70
2873;DHT22;1444;49.166;7.312;2023-02-28T09:54:08;4.40;80.70
2873;DHT22;1444;49.166;7.312;2023-02-28T09:56:40;4.40;80.20
2873;DHT22;1444;49.166;7.312;2023-02-28T09:59:16;4.20;80.60
2873;DHT22;1444;49.166;7.312;2023-02-28T10:06:50;3.90;81.90
2873;DHT22;1444;49.166;7.312;2023-02-28T10:09:19;3.80;80.50
2873;DHT22;1444;49.166;7.312;2023-02-28T10:11:50;3.90;81.70
2873;DHT22;1444;49.166;7.312;2023-02-28T10:14:20;4.00;81.80
2873;DHT22;1444;49.166;7.312;2023-02-28T10:16:50;6.50;83.30
2873;DHT22;1444;49.166;7.312;2023-02-28T10:21:55;4.20;81.30
2873;DHT22;1444;49.166;7.312;2023-02-28T10:24:27;4.30;81.10
2873;DHT22;1444;49.166;7.312;2023-02-28T10:27:00;4.30;79.30
2873;DHT22;1444;49.166;7.312;2023-02-28T10:29:28;4.40;79.50
2873;DHT22;1444;49.166;7.312;2023-02-28T10:32:01;4.30;79.30
2873;DHT22;1444;49.166;7.312;2023-02-28T10:34:28;4.40;79.80
2873;DHT22;1444;49.166;7.312;2023-02-28T10:36:56;4.40;80.30
2873;DHT22;1444;49.166;7.312;2023-02-28T10:42:04;4.40;78.60
2873;DHT22;1444;49.166;7.312;2023-02-28T10:44:32;4.30;78.60
2873;DHT22;1444;49.166;7.312;2023-02-28T10:46:59;4.30;79.40
2873;DHT22;1444;49.166;7.312;2023-02-28T10:54:28;4.60;80.80
2873;DHT22;1444;49.166;7.312;2023-02-28T10:57:07;4.70;78.70
2873;DHT22;1444;49.166;7.312;2023-02-28T10:59:35;4.70;77.80
2873;DHT22;1444;49.166;7.312;2023-02-28T11:02:01;4.50;77.60
2873;DHT22;1444;49.166;7.312;2023-02-28T11:04:33;5.20;78.50
2873;DHT22;1444;49.166;7.312;2023-02-28T11:07:06;4.40;78.60
2873;DHT22;1444;49.166;7.312;2023-02-28T11:12:22;4.70;78.80
2873;DHT22;1444;49.166;7.312;2023-02-28T11:14:52;5.00;79.50
2873;DHT22;1444;49.166;7.312;2023-02-28T11:22:21;5.60;76.80
2873;DHT22;1444;49.166;7.312;2023-02-28T11:24:51;5.50;76.40
2873;DHT22;1444;49.166;7.312;2023-02-28T11:30:24;5.00;76.00
2873;DHT22;1444;49.166;7.312;2023-02-28T11:32:51;4.90;76.20
2873;DHT22;1444;49.166;7.312;2023-02-28T11:35:23;4.70;76.60
2873;DHT22;1444;49.166;7.312;2023-02-28T11:37:52;4.70;77.40
2873;DHT22;1444;49.166;7.312;2023-02-28T11:42:57;4.80;77.80
2873;DHT22;1444;49.166;7.312;2023-02-28T11:45:41;4.80;78.00
2873;DHT22;1444;49.166;7.312;2023-02-28T11:48:16;4.90;77.80
2873;DHT22;1444;49.166;7.312;2023-02-28T11:58:36;5.00;77.50
2873;DHT22;1444;49.166;7.312;2023-02-28T12:01:32;5.30;79.30
2873;DHT22;1444;49.166;7.312;2023-02-28T12:06:50;5.80;76.50
2873;DHT22;1444;49.166;7.312;2023-02-28T12:09:38;6.00;76.10
2873;DHT22;1444;49.166;7.312;2023-02-28T12:12:15;6.10;74.90
2873;DHT22;1444;49.166;7.312;2023-02-28T12:14:54;6.20;75.90
2873;DHT22;1444;49.166;7.312;2023-02-28T12:17:32;6.20;75.00
2873;DHT22;1444;49.166;7.312;2023-02-28T12:22:37;6.10;72.80
2873;DHT22;1444;49.166;7.312;2023-02-28T12:30:42;6.00;74.30
2873;DHT22;1444;49.166;7.312;2023-02-28T12:33:16;6.00;73.00
2873;DHT22;1444;49.166;7.312;2023-02-28T12:38:17;6.20;73.10
2873;DHT22;1444;49.166;7.312;2023-02-28T12:40:50;6.30;72.50
2873;DHT22;1444;49.166;7.312;2023-02-28T12:45:50;6.10;71.60
2873;DHT22;1444;49.166;7.312;2023-02-28T12:50:48;5.90;71.50
2873;DHT22;1444;49.166;7.312;2023-02-28T12:53:20;5.60;71.50
2873;DHT22;1444;49.166;7.312;2023-02-28T12:55:57;5.60;71.90
2873;DHT22;1444;49.166;7.312;2023-02-28T13:04:27;5.90;75.00
2873;DHT22;1444;49.166;7.312;2023-02-28T13:07:08;6.40;75.70
2873;DHT22;1444;49.166;7.312;2023-02-28T13:09:37;6.80;73.90
2873;DHT22;1444;49.166;7.312;2023-02-28T13:12:14;7.10;74.60
2873;DHT22;1444;49.166;7.312;2023-02-28T13:14:41;5.50;70.80
2873;DHT22;1444;49.166;7.312;2023-02-28T13:17:11;7.60;71.60
2873;DHT22;1444;49.166;7.312;2023-02-28T13:19:43;7.60;71.20
2873;DHT22;1444;49.166;7.312;2023-02-28T13:24:48;7.40;70.10
2873;DHT22;1444;49.166;7.312;2023-02-28T13:27:37;7.20;70.80
2873;DHT22;1444;49.166;7.312;2023-02-28T13:33:26;7.20;71.60
2873;DHT22;1444;49.166;7.312;2023-02-28T13:36:19;7.00;71.00
2873;DHT22;1444;49.166;7.312;2023-02-28T13:38:50;6.90;71.30
2873;DHT22;1444;49.166;7.312;2023-02-28T13:46:35;7.10;72.10
2873;DHT22;1444;49.166;7.312;2023-02-28T13:49:25;7.10;72.50
2873;DHT22;1444;49.166;7.312;2023-02-28T13:52:02;7.20;71.30
2873;DHT22;1444;49.166;7.312;2023-02-28T13:54:44;8.10;71.80
2873;DHT22;1444;49.166;7.312;2023-02-28T13:57:27;7.20;71.40
2873;DHT22;1444;49.166;7.312;2023-02-28T14:00:15;7.30;72.00
2873;DHT22;1444;49.166;7.312;2023-02-28T14:05:35;7.30;70.80
2873;DHT22;1444;49.166;7.312;2023-02-28T14:08:06;7.20;71.50
2873;DHT22;1444;49.166;7.312;2023-02-28T14:10:42;7.30;72.90
2873;DHT22;1444;49.166;7.312;2023-02-28T14:13:38;7.20;70.60
2873;DHT22;1444;49.166;7.312;2023-02-28T14:16:11;7.40;72.60
2873;DHT22;1444;49.166;7.312;2023-02-28T14:18:42;7.40;73.20
2873;DHT22;1444;49.166;7.312;2023-02-28T14:21:20;7.90;71.30
2873;DHT22;1444;49.166;7.312;2023-02-28T14:24:21;8.00;70.70
2873;DHT22;1444;49.166;7.312;2023-02-28T14:32:06;7.50;69.60
2873;DHT22;1444;49.166;7.312;2023-02-28T14:34:42;7.10;68.80
2873;DHT22;1444;49.166;7.312;2023-02-28T14:37:16;7.10;71.00
2873;DHT22;1444;49.166;7.312;2023-02-28T14:39:46;8.50;73.40
2873;DHT22;1444;49.166;7.312;2023-02-28T14:42:31;7.20;71.20
2873;DHT22;1444;49.166;7.312;2023-02-28T14:44:58;7.40;69.90
2873;DHT22;1444;49.166;7.312;2023-02-28T14:47:28;7.30;70.80
2873;DHT22;1444;49.166;7.312;2023-02-28T14:52:25;7.40;71.00
2873;DHT22;1444;49.166;7.312;2023-02-28T14:54:55;7.50;71.70
2873;DHT22;1444;49.166;7.312;2023-02-28T14:57:24;7.40;70.30
2873;DHT22;1444;49.166;7.312;2023-02-28T14:59:59;7.40;70.10
2873;DHT22;1444;49.166;7.312;2023-02-28T15:05:16;7.10;69.20
2873;DHT22;1444;49.166;7.312;2023-02-28T15:12:51;7.00;70.30
2873;DHT22;1444;49.166;7.312;2023-02-28T15:20:18;7.20;71.40
2873;DHT22;1444;49.166;7.312;2023-02-28T15:22:46;7.40;71.00
2873;DHT22;1444;49.166;7.312;2023-02-28T15:25:18;7.30;69.30
2873;DHT22;1444;49.166;7.312;2023-02-28T15:27:47;7.30;71.00
2873;DHT22;1444;49.166;7.312;2023-02-28T15:30:21;7.40;71.40
2873;DHT22;1444;49.166;7.312;2023-02-28T15:38:02;7.60;70.30
2873;DHT22;1444;49.166;7.312;2023-02-28T15:40:31;7.50;70.20
2873;DHT22;1444;49.166;7.312;2023-02-28T15:42:59;7.40;69.30
2873;DHT22;1444;49.166;7.312;2023-02-28T15:45:28;7.30;69.50
2873;DHT22;1444;49.166;7.312;2023-02-28T15:50:24;7.10;70.20
2873;DHT22;1444;49.166;7.312;2023-02-28T15:52:53;7.10;70.60
2873;DHT22;1444;49.166;7.312;2023-02-28T15:55:22;6.90;70.10
2873;DHT22;1444;49.166;7.312;2023-02-28T15:57:51;6.90;70.50
2873;DHT22;1444;49.166;7.312;2023-02-28T16:02:46;7.00;71.50
2873;DHT22;1444;49.166;7.312;2023-02-28T16:05:25;7.10;71.50
2873;DHT22;1444;49.166;7.312;2023-02-28T16:07:59;7.00;71.20
2873;DHT22;1444;49.166;7.312;2023-02-28T16:10:27;7.10;72.30
2873;DHT22;1444;49.166;7.312;2023-02-28T16:12:55;7.00;71.50
2873;DHT22;1444;49.166;7.312;2023-02-28T16:15:24;6.90;70.10
2873;DHT22;1444;49.166;7.312;2023-02-28T16:17:52;6.80;70.10
2873;DHT22;1444;49.166;7.312;2023-02-28T16:22:49;6.70;70.80
2873;DHT22;1444;49.166;7.312;2023-02-28T16:25:17;6.70;71.40
2873;DHT22;1444;49.166;7.312;2023-02-28T16:27:49;6.70;71.20
2873;DHT22;1444;49.166;7.312;2023-02-28T16:32:48;6.60;70.80
2873;DHT22;1444;49.166;7.312;2023-02-28T16:35:15;6.60;71.80
2873;DHT22;1444;49.166;7.312;2023-02-28T16:37:43;6.60;71.70
2873;DHT22;1444;49.166;7.312;2023-02-28T16:40:15;6.50;71.30
2873;DHT22;1444;49.166;7.312;2023-02-28T16:42:43;6.50;71.90
2873;DHT22;1444;49.166;7.312;2023-02-28T16:45:16;6.40;71.40
2873;DHT22;1444;49.166;7.312;2023-02-28T16:47:51;6.20;71.30
2873;DHT22;1444;49.166;7.312;2023-02-28T16:50:20;6.10;71.70
2873;DHT22;1444;49.166;7.312;2023-02-28T16:55:16;5.80;72.20
2873;DHT22;1444;49.166;7.312;2023-02-28T17:02:39;5.40;72.10
2873;DHT22;1444;49.166;7.312;2023-02-28T17:05:06;5.40;72.80
2873;DHT22;1444;49.166;7.312;2023-02-28T17:07:33;5.40;73.10
2873;DHT22;1444;49.166;7.312;2023-02-28T17:12:35;5.20;73.40
2873;DHT22;1444;49.166;7.312;2023-02-28T17:19:56;5.10;74.00
2873;DHT22;1444;49.166;7.312;2023-02-28T17:22:23;4.90;74.20
2873;DHT22;1444;49.166;7.312;2023-02-28T17:24:51;4.90;74.10
2873;DHT22;1444;49.166;7.312;2023-02-28T17:27:20;4.90;74.80
2873;DHT22;1444;49.166;7.312;2023-02-28T17:29:48;4.80;74.80
2873;DHT22;1444;49.166;7.312;2023-02-28T17:37:11;4.60;75.60
2873;DHT22;1444;49.166;7.312;2023-02-28T17:39:37;4.50;75.20
2873;DHT22;1444;49.166;7.312;2023-02-28T17:46:59;4.40;76.00
2873;DHT22;1444;49.166;7.312;2023-02-28T17:49:26;4.40;76.00
2873;DHT22;1444;49.166;7.312;2023-02-28T17:51:53;4.30;76.40
2873;DHT22;1444;49.166;7.312;2023-02-28T17:59:14;4.30;76.50
2873;DHT22;1444;49.166;7.312;2023-02-28T18:01:40;4.30;76.40
2873;DHT22;1444;49.166;7.312;2023-02-28T18:04:08;4.20;76.60
2873;DHT22;1444;49.166;7.312;2023-02-28T18:06:36;4.20;76.90
2873;DHT22;1444;49.166;7.312;2023-02-28T18:09:11;4.20;76.60
2873;DHT22;1444;49.166;7.312;2023-02-28T18:11:38;4.10;76.90
2873;DHT22;1444;49.166;7.312;2023-02-28T18:16:36;4.00;77.10
2873;DHT22;1444;49.166;7.312;2023-02-28T18:19:03;4.00;77.30
2873;DHT22;1444;49.166;7.312;2023-02-28T18:21:32;4.00;77.40
2873;DHT22;1444;49.166;7.312;2023-02-28T18:23:59;3.90;77.30
2873;DHT22;1444;49.166;7.312;2023-02-28T18:31:20;3.70;77.70
2873;DHT22;1444;49.166;7.312;2023-02-28T18:33:49;3.70;77.70
2873;DHT22;1444;49.166;7.312;2023-02-28T18:36:16;3.70;78.00
2873;DHT22;1444;49.166;7.312;2023-02-28T18:38:44;3.60;78.10
2873;DHT22;1444;49.166;7.312;2023-02-28T18:41:11;3.60;78.20
2873;DHT22;1444;49.166;7.312;2023-02-28T18:46:06;3.60;77.80
2873;DHT22;1444;49.166;7.312;2023-02-28T18:48:35;3.50;78.10
2873;DHT22;1444;49.166;7.312;2023-02-28T18:51:05;3.50;78.40
2873;DHT22;1444;49.166;7.312;2023-02-28T18:56:02;3.40;78.70
2873;DHT22;1444;49.166;7.312;2023-02-28T18:58:29;3.30;78.90
2873;DHT22;1444;49.166;7.312;2023-02-28T19:13:15;3.20;80.00
2873;DHT22;1444;49.166;7.312;2023-02-28T19:15:42;3.10;80.00
2873;DHT22;1444;49.166;7.312;2023-02-28T19:20:36;3.10;79.60
2873;DHT22;1444;49.166;7.312;2023-02-28T19:23:03;4.80;81.40
2873;DHT22;1444;49.166;7.312;2023-02-28T19:27:56;3.00;79.50
2873;DHT22;1444;49.166;7.312;2023-02-28T19:30:24;3.00;79.60
2873;DHT22;1444;49.166;7.312;2023-02-28T19:32:51;3.00;79.70
2873;DHT22;1444;49.166;7.312;2023-02-28T19:40:12;2.90;80.20
2873;DHT22;1444;49.166;7.312;2023-02-28T19:42:39;1.90;79.40
2873;DHT22;1444;49.166;7.312;2023-02-28T19:45:06;2.80;80.60
2873;DHT22;1444;49.166;7.312;2023-02-28T19:47:35;2.80;80.80
2873;DHT22;1444;49.166;7.312;2023-02-28T19:50:03;2.80;81.00
2873;DHT22;1444;49.166;7.312;2023-02-28T19:54:58;2.60;81.30
2873;DHT22;1444;49.166;7.312;2023-02-28T19:57:25;2.60;81.40
2873;DHT22;1444;49.166;7.312;2023-02-28T19:59:52;2.40;81.30
2873;DHT22;1444;49.166;7.312;2023-02-28T20:02:20;2.40;81.50
2873;DHT22;1444;49.166;7.312;2023-02-28T20:04:49;2.40;81.70
2873;DHT22;1444;49.166;7.312;2023-02-28T20:07:16;2.40;81.60
2873;DHT22;1444;49.166;7.312;2023-02-28T20:09:44;2.40;81.30
2873;DHT22;1444;49.166;7.312;2023-02-28T20:12:11;2.40;81.40
2873;DHT22;1444;49.166;7.312;2023-02-28T20:19:32;2.30;81.70
2873;DHT22;1444;49.166;7.312;2023-02-28T20:22:01;2.20;82.00
2873;DHT22;1444;49.166;7.312;2023-02-28T20:26:55;2.30;81.80
2873;DHT22;1444;49.166;7.312;2023-02-28T20:29:22;2.40;81.70
2873;DHT22;1444;49.166;7.312;2023-02-28T20:31:49;2.40;81.40
2873;DHT22;1444;49.166;7.312;2023-02-28T20:34:16;2.40;81.50
2873;DHT22;1444;49.166;7.312;2023-02-28T20:36:44;2.40;81.40
2873;DHT22;1444;49.166;7.312;2023-02-28T20:39:12;2.30;81.10
2873;DHT22;1444;49.166;7.312;2023-02-28T20:41:39;2.30;81.10
2873;DHT22;1444;49.166;7.312;2023-02-28T20:48:59;2.40;81.80
2873;DHT22;1444;49.166;7.312;2023-02-28T20:51:26;2.30;82.10
2873;DHT22;1444;49.166;7.312;2023-02-28T20:53:53;2.30;82.10
2873;DHT22;1444;49.166;7.312;2023-02-28T20:56:21;2.30;82.30
2873;DHT22;1444;49.166;7.312;2023-02-28T20:58:51;2.30;82.10
2873;DHT22;1444;49.166;7.312;2023-02-28T21:01:21;2.20;82.00
2873;DHT22;1444;49.166;7.312;2023-02-28T21:03:51;2.20;82.30
2873;DHT22;1444;49.166;7.312;2023-02-28T21:06:20;2.10;82.20
2873;DHT22;1444;49.166;7.312;2023-02-28T21:11:16;2.10;82.20
2873;DHT22;1444;49.166;7.312;2023-02-28T21:16:13;2.00;82.20
2873;DHT22;1444;49.166;7.312;2023-02-28T21:18:40;2.00;82.50
2873;DHT22;1444;49.166;7.312;2023-02-28T21:26:03;2.00;82.60
2873;DHT22;1444;49.166;7.312;2023-02-28T21:28:30;2.00;82.40
2873;DHT22;1444;49.166;7.312;2023-02-28T21:31:01;2.00;82.70
2873;DHT22;1444;49.166;7.312;2023-02-28T21:36:02;1.90;82.80
2873;DHT22;1444;49.166;7.312;2023-02-28T21:38:29;1.80;82.40
2873;DHT22;1444;49.166;7.312;2023-02-28T21:43:29;1.80;82.60
2873;DHT22;1444;49.166;7.312;2023-02-28T21:45:58;-1.10;80.00
2873;DHT22;1444;49.166;7.312;2023-02-28T21:48:27;1.90;83.00
2873;DHT22;1444;49.166;7.312;2023-02-28T21:50:55;1.90;83.10
2873;DHT22;1444;49.166;7.312;2023-02-28T21:58:16;1.90;82.90
2873;DHT22;1444;49.166;7.312;2023-02-28T22:00:43;4.50;85.50
2873;DHT22;1444;49.166;7.312;2023-02-28T22:05:39;1.70;83.00
2873;DHT22;1444;49.166;7.312;2023-02-28T22:08:05;4.60;85.90
2873;DHT22;1444;49.166;7.312;2023-02-28T22:10:33;1.60;83.10
2873;DHT22;1444;49.166;7.312;2023-02-28T22:13:00;1.60;83.30
2873;DHT22;1444;49.166;7.312;2023-02-28T22:17:55;1.60;83.40
2873;DHT22;1444;49.166;7.312;2023-02-28T22:20:21;1.70;83.60
2873;DHT22;1444;49.166;7.312;2023-02-28T22:27:44;1.60;83.10
2873;DHT22;1444;49.166;7.312;2023-02-28T22:30:11;1.60;83.20
2873;DHT22;1444;49.166;7.312;2023-02-28T22:32:38;1.70;83.40
2873;DHT22;1444;49.166;7.312;2023-02-28T22:35:05;1.70;83.30
2873;DHT22;1444;49.166;7.312;2023-02-28T22:40:01;1.60;83.20
2873;DHT22;1444;49.166;7.312;2023-02-28T22:42:27;1.70;83.40
2873;DHT22;1444;49.166;7.312;2023-02-28T22:44:57;1.70;83.40
2873;DHT22;1444;49.166;7.312;2023-02-28T22:47:24;1.70;83.20
2873;DHT22;1444;49.166;7.312;2023-02-28T22:49:51;1.70;83.40
2873;DHT22;1444;49.166;7.312;2023-02-28T22:52:17;1.60;83.20
2873;DHT22;1444;49.166;7.312;2023-02-28T22:54:48;1.60;83.40
2873;DHT22;1444;49.166;7.312;2023-02-28T22:59:43;1.60;83.20
2873;DHT22;1444;49.166;7.312;2023-02-28T23:02:10;1.60;83.20
2873;DHT22;1444;49.166;7.312;2023-02-28T23:04:36;1.60;83.30
2873;DHT22;1444;49.166;7.312;2023-02-28T23:07:03;1.70;83.40
2873;DHT22;1444;49.166;7.312;2023-02-28T23:09:30;1.70;83.30
2873;DHT22;1444;49.166;7.312;2023-02-28T23:16:53;1.70;83.20
2873;DHT22;1444;49.166;7.312;2023-02-28T23:21:48;1.60;83.30
2873;DHT22;1444;49.166;7.312;2023-02-28T23:24:17;1.60;83.30
2873;DHT22;1444;49.166;7.312;2023-02-28T23:26:45;1.60;83.50
2873;DHT22;1444;49.166;7.312;2023-02-28T23:29:14;1.60;83.60
2873;DHT22;1444;49.166;7.312;2023-02-28T23:31:43;1.60;83.70